Time;durP1;ratioP1;P1;durP2;ratioP2;P2;SDS_P1;SDS_P2;PMS_P1;PMS_P2;Temp;Humidity;BMP_temperature;BMP_pressure;BME280_temperature;BME280_humidity;BME280_pressure;Samples;Min_cycle;Max_cycle;Signal;HPM_P1;HPM_P2
2022/05/25 00:00:08;;;;;;;8.88;7.97;;;10.10;88.10;;;;;;5047345;28;20040;-47
2022/05/25 00:02:34;;;;;;;10.05;7.35;;;10.10;88.10;;;;;;5030361;28;20401;-47
2022/05/25 00:04:59;;;;;;;10.63;7.72;;;10.00;88.10;;;;;;5029061;28;20076;-50
2022/05/25 00:07:25;;;;;;;9.85;8.80;;;10.00;88.20;;;;;;5031404;28;20075;-48
2022/05/25 00:09:53;;;;;;;12.23;8.18;;;10.00;88.10;;;;;;5029968;28;20117;-47
2022/05/25 00:12:20;;;;;;;8.40;7.55;;;10.00;88.10;;;;;;5039657;28;20031;-47
2022/05/25 00:14:47;;;;;;;10.15;7.95;;;10.00;88.20;;;;;;5029837;28;20389;-49
2022/05/25 00:17:12;;;;;;;11.55;8.20;;;10.00;88.10;;;;;;5030383;28;20124;-48
2022/05/25 00:22:22;;;;;;;10.82;8.15;;;10.00;88.10;;;;;;5045075;28;20124;-47
2022/05/25 00:24:48;;;;;;;10.13;7.78;;;10.00;88.20;;;;;;5047774;28;20064;-47
2022/05/25 00:27:13;;;;;;;8.98;8.07;;;10.00;88.10;;;;;;5044388;28;20043;-49
2022/05/25 00:29:39;;;;;;;10.77;8.50;;;10.00;88.10;;;;;;5046913;28;20367;-47
2022/05/25 00:32:06;;;;;;;9.70;8.50;;;10.00;88.10;;;;;;5048058;28;20376;-47
2022/05/25 00:34:34;;;;;;;9.75;8.18;;;10.00;88.10;;;;;;5030275;28;20069;-47
2022/05/25 00:37:00;;;;;;;13.10;9.18;;;9.90;88.10;;;;;;5029112;28;20068;-47
2022/05/25 00:39:26;;;;;;;12.38;9.63;;;9.90;88.30;;;;;;5030201;28;20057;-47
2022/05/25 00:41:55;;;;;;;9.85;8.77;;;9.90;88.20;;;;;;5039791;28;20033;-48
2022/05/25 00:44:21;;;;;;;8.95;7.88;;;10.00;88.20;;;;;;5049872;28;20421;-48
2022/05/25 00:46:47;;;;;;;9.48;8.48;;;9.90;88.10;;;;;;5047614;28;20132;-48
2022/05/25 00:49:17;;;;;;;11.27;8.93;;;9.90;88.20;;;;;;5048637;28;20040;-47
2022/05/25 00:51:48;;;;;;;14.35;9.05;;;9.90;88.20;;;;;;5037017;28;20041;-49
2022/05/25 00:54:22;;;;;;;9.75;8.30;;;9.90;88.10;;;;;;5049210;28;20029;-49
2022/05/25 00:56:50;;;;;;;9.98;8.32;;;9.90;88.10;;;;;;5036643;28;20033;-49
2022/05/25 00:59:20;;;;;;;13.77;8.77;;;9.90;88.00;;;;;;5009359;28;20053;-47
2022/05/25 01:01:46;;;;;;;9.23;8.05;;;9.90;88.10;;;;;;5034174;28;20353;-49
2022/05/25 01:04:15;;;;;;;8.25;7.45;;;9.90;88.00;;;;;;5047921;28;20108;-50
2022/05/25 01:06:59;;;;;;;10.50;9.27;;;9.90;88.10;;;;;;5042251;28;20438;-49
2022/05/25 01:09:39;;;;;;;10.15;9.02;;;9.80;88.10;;;;;;5030532;28;20033;-47
2022/05/25 01:12:34;;;;;;;8.60;7.63;;;9.80;88.10;;;;;;5038327;28;20049;-48
2022/05/25 01:15:25;;;;;;;8.65;7.75;;;9.80;88.10;;;;;;5038312;28;20338;-47
2022/05/25 01:18:00;;;;;;;7.88;7.07;;;9.70;88.10;;;;;;5025919;28;20370;-47
2022/05/25 01:20:30;;;;;;;11.20;7.25;;;9.70;88.10;;;;;;5047091;28;20037;-48
2022/05/25 01:23:34;;;;;;;9.25;7.75;;;9.70;88.30;;;;;;5043341;28;20037;-49
2022/05/25 01:26:35;;;;;;;9.40;7.93;;;9.70;88.30;;;;;;5025333;28;20717;-49
2022/05/25 01:29:30;;;;;;;12.57;8.98;;;9.70;88.30;;;;;;5009867;28;20063;-47
2022/05/25 01:32:06;;;;;;;8.82;7.88;;;9.70;88.40;;;;;;5025925;28;20113;-49
2022/05/25 01:34:39;;;;;;;11.05;8.95;;;9.70;88.40;;;;;;5047137;28;20109;-48
2022/05/25 01:37:16;;;;;;;8.73;7.82;;;9.70;88.50;;;;;;5039683;28;20381;-48
2022/05/25 01:39:52;;;;;;;9.90;7.97;;;9.70;88.40;;;;;;5028147;28;20063;-48
2022/05/25 01:42:17;;;;;;;11.32;8.82;;;9.70;88.50;;;;;;5042171;28;20043;-50
2022/05/25 01:44:52;;;;;;;10.80;8.68;;;9.70;88.50;;;;;;5044606;28;20026;-48
2022/05/25 01:47:23;;;;;;;9.25;7.60;;;9.70;88.40;;;;;;5034738;28;20021;-48
2022/05/25 01:50:01;;;;;;;9.25;7.65;;;9.70;88.50;;;;;;5046748;28;20442;-47
2022/05/25 01:52:32;;;;;;;9.20;7.90;;;9.60;88.50;;;;;;5030608;28;20049;-49
2022/05/25 01:55:06;;;;;;;9.43;8.52;;;9.60;88.50;;;;;;5038135;28;20060;-49
2022/05/25 01:57:36;;;;;;;10.50;8.48;;;9.60;88.60;;;;;;5034265;28;20029;-47
2022/05/25 02:00:03;;;;;;;9.65;8.45;;;9.50;88.70;;;;;;5042738;28;20030;-47
2022/05/25 02:05:19;;;;;;;13.38;9.13;;;9.50;88.70;;;;;;5046072;28;20523;-48
2022/05/25 02:08:09;;;;;;;10.90;9.80;;;9.50;88.70;;;;;;5046877;28;20106;-47
2022/05/25 02:10:56;;;;;;;11.90;9.60;;;9.50;88.70;;;;;;5034791;28;20026;-47
2022/05/25 02:13:40;;;;;;;11.90;9.48;;;9.50;88.80;;;;;;5027754;28;20050;-49
2022/05/25 02:16:44;;;;;;;10.63;9.02;;;9.40;88.90;;;;;;5019213;28;20047;-50
2022/05/25 02:19:23;;;;;;;10.38;9.20;;;9.40;88.80;;;;;;5047043;28;20060;-49
2022/05/25 02:21:51;;;;;;;12.05;9.57;;;9.40;88.70;;;;;;5040220;28;20036;-48
2022/05/25 02:24:31;;;;;;;10.75;9.32;;;9.40;88.90;;;;;;5034534;28;20344;-48
2022/05/25 02:27:02;;;;;;;;;;;9.40;88.90;;;;;;5046036;28;20090;-48
2022/05/25 02:29:35;;;;;;;9.93;8.57;;;9.30;88.90;;;;;;5048839;28;19941;-50
2022/05/25 02:32:16;;;;;;;9.90;8.90;;;9.40;88.90;;;;;;5013179;28;20419;-48
2022/05/25 02:34:47;;;;;;;11.05;9.60;;;9.40;88.90;;;;;;5036362;28;20037;-47
2022/05/25 02:37:13;;;;;;;9.95;9.00;;;9.30;88.90;;;;;;5050841;28;20044;-48
2022/05/25 02:39:39;;;;;;;10.98;9.90;;;9.40;89.00;;;;;;5042147;28;20155;-51
2022/05/25 02:42:13;;;;;;;11.30;9.77;;;9.40;88.90;;;;;;5031110;28;20115;-48
2022/05/25 02:44:41;;;;;;;10.77;9.68;;;9.40;89.10;;;;;;5032501;28;20026;-49
2022/05/25 02:47:07;;;;;;;10.07;9.05;;;9.40;89.00;;;;;;5048835;28;20039;-47
2022/05/25 02:49:32;;;;;;;11.35;10.18;;;9.30;88.90;;;;;;5050767;28;20108;-50
2022/05/25 02:51:58;;;;;;;11.35;10.27;;;9.30;88.90;;;;;;5049122;28;20064;-50
2022/05/25 02:54:23;;;;;;;10.70;9.50;;;9.30;89.00;;;;;;5035173;28;20122;-53
2022/05/25 02:56:51;;;;;;;10.95;9.85;;;9.30;89.10;;;;;;5039527;28;20036;-50
2022/05/25 02:59:17;;;;;;;10.20;8.80;;;9.30;89.10;;;;;;5052427;28;20037;-48
2022/05/25 03:01:42;;;;;;;10.40;9.15;;;9.30;89.10;;;;;;5041619;28;20036;-50
2022/05/25 03:04:08;;;;;;;12.50;9.38;;;9.30;89.10;;;;;;5049555;28;20033;-48
2022/05/25 03:06:34;;;;;;;11.45;8.65;;;9.30;89.10;;;;;;5050866;28;20044;-48
2022/05/25 03:09:00;;;;;;;10.32;9.23;;;9.30;89.30;;;;;;5048655;28;20104;-51
2022/05/25 03:11:25;;;;;;;10.10;9.02;;;9.30;89.20;;;;;;5045508;28;20039;-49
2022/05/25 03:13:55;;;;;;;10.90;9.90;;;9.30;89.30;;;;;;5050477;28;20020;-48
2022/05/25 03:16:22;;;;;;;10.40;8.55;;;9.30;89.30;;;;;;5051775;28;20033;-48
2022/05/25 03:18:50;;;;;;;10.15;9.10;;;9.30;89.30;;;;;;5030894;28;20029;-48
2022/05/25 03:21:17;;;;;;;9.73;8.80;;;9.30;89.30;;;;;;5028984;28;20462;-51
2022/05/25 03:23:45;;;;;;;10.50;9.50;;;9.30;89.10;;;;;;5030290;28;20474;-50
2022/05/25 03:26:11;;;;;;;10.02;8.82;;;9.30;89.20;;;;;;5030567;28;20417;-50
2022/05/25 03:28:36;;;;;;;10.27;9.27;;;9.30;89.20;;;;;;5038176;28;20032;-48
2022/05/25 03:31:06;;;;;;;10.63;9.55;;;9.30;89.20;;;;;;5050225;28;20029;-48
2022/05/25 03:33:32;;;;;;;10.90;9.60;;;9.30;89.10;;;;;;5032434;28;20040;-48
2022/05/25 03:35:58;;;;;;;10.77;9.60;;;9.30;89.20;;;;;;5030556;28;20061;-49
2022/05/25 03:38:24;;;;;;;10.70;9.60;;;9.30;89.30;;;;;;5030343;28;20474;-49
2022/05/25 03:40:50;;;;;;;12.07;10.02;;;9.30;89.20;;;;;;5030266;28;20045;-49
2022/05/25 03:43:20;;;;;;;10.00;8.88;;;9.30;89.30;;;;;;5030606;28;20429;-48
2022/05/25 03:45:47;;;;;;;10.70;9.60;;;9.30;89.30;;;;;;5031474;28;20120;-48
2022/05/25 03:48:14;;;;;;;13.50;10.68;;;9.40;89.20;;;;;;5030122;28;20053;-50
2022/05/25 03:50:41;;;;;;;10.05;9.05;;;9.40;89.20;;;;;;5030291;28;20489;-51
2022/05/25 03:53:08;;;;;;;10.02;9.05;;;9.40;89.20;;;;;;5029869;28;20102;-50
2022/05/25 03:55:35;;;;;;;11.23;10.20;;;9.40;89.30;;;;;;5031535;28;20037;-49
2022/05/25 03:58:02;;;;;;;10.60;9.50;;;9.40;89.30;;;;;;5028445;28;20026;-48
2022/05/25 04:00:27;;;;;;;11.48;10.38;;;9.40;89.30;;;;;;5050869;28;20111;-49
2022/05/25 04:02:53;;;;;;;11.40;10.20;;;9.40;89.20;;;;;;5031976;28;20029;-48
2022/05/25 04:05:21;;;;;;;11.35;9.52;;;9.40;89.20;;;;;;5049952;28;20443;-48
2022/05/25 04:07:48;;;;;;;11.45;10.40;;;9.50;89.30;;;;;;5032083;28;20029;-48
2022/05/25 04:10:18;;;;;;;14.75;11.52;;;9.50;89.40;;;;;;5045301;28;20037;-49
2022/05/25 04:12:44;;;;;;;11.88;10.07;;;9.50;89.40;;;;;;5017278;28;20032;-48
2022/05/25 04:15:14;;;;;;;12.77;10.65;;;9.60;89.40;;;;;;5029449;28;20339;-49
2022/05/25 04:17:39;;;;;;;12.07;10.88;;;9.60;89.30;;;;;;5030332;28;20037;-50
2022/05/25 04:20:06;;;;;;;12.30;11.00;;;9.60;89.40;;;;;;5030911;28;20044;-48
2022/05/25 04:22:32;;;;;;;11.77;10.50;;;9.70;89.50;;;;;;5032051;28;20116;-48
2022/05/25 04:25:02;;;;;;;12.45;11.15;;;9.80;89.60;;;;;;5029569;28;20030;-49
2022/05/25 04:27:28;;;;;;;;;;;9.90;89.60;;;;;;5027897;28;20136;-48
2022/05/25 04:29:56;;;;;;;13.57;11.63;;;9.90;89.60;;;;;;5029526;28;20309;-48
2022/05/25 04:32:21;;;;;;;13.65;12.38;;;10.00;89.40;;;;;;5029326;28;20194;-48
2022/05/25 04:34:47;;;;;;;12.35;11.05;;;10.00;89.40;;;;;;5030399;28;20044;-48
2022/05/25 04:39:57;;;;;;;13.70;12.30;;;10.20;89.30;;;;;;5019292;28;20035;-48
2022/05/25 04:42:28;;;;;;;12.30;11.02;;;10.20;89.20;;;;;;5028262;28;20045;-49
2022/05/25 04:45:00;;;;;;;13.45;12.07;;;10.20;89.30;;;;;;5028274;28;20091;-48
2022/05/25 04:47:28;;;;;;;12.77;11.45;;;10.30;89.20;;;;;;5029048;28;20109;-48
2022/05/25 04:49:53;;;;;;;12.60;11.35;;;10.30;89.20;;;;;;5038874;28;20669;-50
2022/05/25 04:52:19;;;;;;;13.30;11.90;;;10.40;89.30;;;;;;5033014;28;20164;-50
2022/05/25 04:54:45;;;;;;;14.15;12.32;;;10.40;89.30;;;;;;5029795;28;20022;-49
2022/05/25 04:57:19;;;;;;;14.30;12.55;;;10.50;89.20;;;;;;5031826;28;20080;-50
2022/05/25 04:59:46;;;;;;;14.07;12.00;;;10.60;89.30;;;;;;5029488;28;20044;-47
2022/05/25 05:02:12;;;;;;;15.75;14.15;;;10.60;89.40;;;;;;5034417;28;20017;-47
2022/05/25 05:04:40;;;;;;;13.93;12.63;;;10.70;89.40;;;;;;5031786;28;20481;-47
2022/05/25 05:07:05;;;;;;;15.82;14.10;;;10.80;89.30;;;;;;5027668;28;20017;-47
2022/05/25 05:09:35;;;;;;;16.38;13.85;;;10.90;89.40;;;;;;5028250;28;20040;-47
2022/05/25 05:12:01;;;;;;;16.13;14.52;;;10.90;89.30;;;;;;5027068;28;20481;-47
2022/05/25 05:14:27;;;;;;;16.75;13.75;;;10.90;89.30;;;;;;5026597;28;20037;-48
2022/05/25 05:16:57;;;;;;;14.90;13.40;;;11.00;89.30;;;;;;5026911;28;20063;-47
2022/05/25 05:19:27;;;;;;;18.50;14.35;;;11.10;89.40;;;;;;5029101;28;20143;-47
2022/05/25 05:21:54;;;;;;;16.83;15.02;;;11.20;89.40;;;;;;5035095;28;20048;-47
2022/05/25 05:24:24;;;;;;;16.40;14.00;;;11.20;89.20;;;;;;5027587;28;20026;-48
2022/05/25 05:26:49;;;;;;;16.17;14.40;;;11.30;89.20;;;;;;5026221;28;20029;-48
2022/05/25 05:29:15;;;;;;;17.45;15.68;;;11.30;89.30;;;;;;5042816;28;20098;-51
2022/05/25 05:31:41;;;;;;;16.92;15.23;;;11.40;89.20;;;;;;5042300;28;20032;-46
2022/05/25 05:34:11;;;;;;;16.23;14.55;;;11.40;89.20;;;;;;5023892;28;20463;-47
2022/05/25 05:36:42;;;;;;;16.63;14.75;;;11.50;89.10;;;;;;5024012;28;20095;-47
2022/05/25 05:39:12;;;;;;;14.93;13.50;;;11.70;88.90;;;;;;5028148;28;20038;-49
2022/05/25 05:42:06;;;;;;;15.85;13.48;;;11.90;88.60;;;;;;5025271;28;20453;-46
2022/05/25 05:44:38;;;;;;;13.90;12.35;;;12.30;88.50;;;;;;5026835;28;20575;-45
2022/05/25 05:47:08;;;;;;;11.98;10.80;;;12.60;87.30;;;;;;5033262;28;20052;-45
2022/05/25 05:49:36;;;;;;;13.27;11.93;;;12.90;86.50;;;;;;5026609;28;20029;-45
2022/05/25 05:52:02;;;;;;;12.38;11.18;;;13.00;85.70;;;;;;5025976;28;20054;-44
2022/05/25 05:54:28;;;;;;;12.68;11.32;;;13.10;85.40;;;;;;5028737;28;20029;-43
2022/05/25 05:56:53;;;;;;;14.20;12.02;;;13.20;85.00;;;;;;5027484;28;20398;-45
2022/05/25 05:59:19;;;;;;;12.50;11.27;;;13.20;85.10;;;;;;5028102;28;20069;-44
2022/05/25 06:01:45;;;;;;;12.25;10.93;;;13.20;85.30;;;;;;5025748;28;20068;-42
2022/05/25 06:04:11;;;;;;;13.18;11.82;;;13.10;85.40;;;;;;5043754;28;20060;-42
2022/05/25 06:06:39;;;;;;;13.48;11.60;;;13.10;85.40;;;;;;5036689;28;20123;-42
2022/05/25 06:09:05;;;;;;;12.77;11.57;;;13.20;85.60;;;;;;5032118;28;20018;-43
2022/05/25 06:11:32;;;;;;;14.52;12.27;;;13.20;85.10;;;;;;5030836;28;20037;-42
2022/05/25 06:13:58;;;;;;;12.20;11.10;;;13.30;85.50;;;;;;5035832;28;20028;-41
2022/05/25 06:19:26;;;;;;;13.27;11.63;;;13.40;85.60;;;;;;5021690;28;20088;-41
2022/05/25 06:22:00;;;;;;;13.05;11.75;;;13.40;85.20;;;;;;5032670;28;20037;-42
2022/05/25 06:24:27;;;;;;;12.57;11.32;;;13.40;85.30;;;;;;5042886;28;20041;-42
2022/05/25 06:26:53;;;;;;;14.25;12.23;;;13.40;85.20;;;;;;5047140;28;20422;-41
2022/05/25 06:29:19;;;;;;;13.18;11.75;;;13.40;85.00;;;;;;5048281;28;20021;-41
2022/05/25 06:31:45;;;;;;;12.75;11.02;;;13.50;85.30;;;;;;5047779;28;20040;-44
2022/05/25 06:34:13;;;;;;;12.25;10.95;;;13.60;85.30;;;;;;5030788;28;20025;-41
2022/05/25 06:36:39;;;;;;;11.10;10.00;;;13.70;85.20;;;;;;5046857;28;20039;-42
2022/05/25 06:39:04;;;;;;;11.25;9.07;;;13.80;85.10;;;;;;5048492;28;20075;-41
2022/05/25 06:41:30;;;;;;;10.30;9.20;;;13.80;84.60;;;;;;5021935;28;20356;-41
2022/05/25 06:43:56;;;;;;;11.93;9.75;;;13.80;84.50;;;;;;5030254;28;20128;-40
2022/05/25 06:46:24;;;;;;;11.60;10.50;;;13.90;84.40;;;;;;5030073;28;20077;-40
2022/05/25 06:48:52;;;;;;;12.85;10.45;;;13.90;84.50;;;;;;5052340;28;20434;-40
2022/05/25 06:51:21;;;;;;;14.65;10.05;;;14.00;84.40;;;;;;5049728;28;20048;-41
2022/05/25 06:53:49;;;;;;;10.20;9.10;;;14.00;84.20;;;;;;5050587;28;20033;-43
2022/05/25 06:56:16;;;;;;;10.55;8.45;;;14.10;83.90;;;;;;5030798;28;20108;-40
2022/05/25 06:58:43;;;;;;;12.10;9.57;;;14.10;83.70;;;;;;5047829;28;20036;-41
2022/05/25 07:01:09;;;;;;;13.25;8.75;;;14.10;83.10;;;;;;5040843;28;20446;-40
2022/05/25 07:03:35;;;;;;;11.32;9.13;;;14.20;83.30;;;;;;5032056;28;20025;-42
2022/05/25 07:06:06;;;;;;;11.73;8.10;;;14.30;83.90;;;;;;5046683;28;20025;-41
2022/05/25 07:08:31;;;;;;;11.32;8.25;;;14.40;83.10;;;;;;5036306;28;20040;-41
2022/05/25 07:11:00;;;;;;;8.77;7.85;;;14.40;83.00;;;;;;5030761;28;20029;-42
2022/05/25 07:13:26;;;;;;;10.80;8.80;;;14.40;82.50;;;;;;5037939;28;20033;-41
2022/05/25 07:15:56;;;;;;;9.60;8.55;;;14.60;82.70;;;;;;5037319;28;20044;-41
2022/05/25 07:18:22;;;;;;;8.10;6.72;;;14.70;82.20;;;;;;5036794;28;20036;-42
2022/05/25 07:20:48;;;;;;;11.10;8.13;;;15.00;82.10;;;;;;5030449;28;20025;-40
2022/05/25 07:23:14;;;;;;;8.07;7.15;;;15.50;82.40;;;;;;5035053;28;20033;-40
2022/05/25 07:25:39;;;;;;;9.90;6.78;;;15.70;78.40;;;;;;5035103;28;20464;-40
2022/05/25 07:28:07;;;;;;;7.78;6.82;;;16.20;77.40;;;;;;5048373;28;20031;-42
2022/05/25 07:30:33;;;;;;;6.97;5.53;;;16.80;77.00;;;;;;5033156;28;20037;-41
2022/05/25 07:32:59;;;;;;;7.63;6.07;;;17.00;75.10;;;;;;5031689;28;20087;-41
2022/05/25 07:35:25;;;;;;;12.82;6.50;;;17.50;72.90;;;;;;5030748;28;20334;-41
2022/05/25 07:37:55;;;;;;;8.77;5.55;;;17.80;72.30;;;;;;5031557;28;20356;-42
2022/05/25 07:40:31;;;;;;;6.63;5.30;;;18.20;70.80;;;;;;5031013;28;20506;-41
2022/05/25 07:43:00;;;;;;;6.68;5.70;;;18.40;69.40;;;;;;5035951;28;20485;-42
2022/05/25 07:45:28;;;;;;;7.80;5.18;;;19.00;68.60;;;;;;5036768;28;20476;-43
2022/05/25 07:47:54;;;;;;;4.55;4.05;;;19.70;66.10;;;;;;5043332;28;20095;-42
2022/05/25 07:50:23;;;;;;;6.95;5.20;;;19.60;64.50;;;;;;5039365;28;20056;-44
2022/05/25 07:52:51;;;;;;;6.97;4.72;;;19.80;63.10;;;;;;5042149;28;20049;-43
2022/05/25 07:55:17;;;;;;;6.53;4.53;;;20.10;62.70;;;;;;5033933;28;20036;-42
2022/05/25 07:57:43;;;;;;;5.70;3.78;;;20.30;62.40;;;;;;5044169;28;20047;-43
2022/05/25 08:00:09;;;;;;;6.05;4.57;;;20.40;62.20;;;;;;5032577;28;20033;-44
2022/05/25 08:08:10;;;;;;;5.57;4.25;;;20.90;60.70;;;;;;5030671;28;20040;-44
2022/05/25 08:10:36;;;;;;;4.82;3.75;;;21.00;59.80;;;;;;5030091;28;20041;-44
2022/05/25 08:13:02;;;;;;;6.53;4.15;;;20.60;58.50;;;;;;5046198;28;20040;-43
2022/05/25 08:15:29;;;;;;;9.50;4.75;;;20.40;59.10;;;;;;5041497;28;20092;-44
2022/05/25 08:17:55;;;;;;;7.80;3.67;;;20.60;59.90;;;;;;5029468;28;20051;-46
2022/05/25 08:20:21;;;;;;;8.05;4.30;;;21.10;58.90;;;;;;5030553;28;20108;-43
2022/05/25 08:22:48;;;;;;;5.63;4.10;;;20.70;58.10;;;;;;5036956;28;20366;-45
2022/05/25 08:25:15;;;;;;;4.90;3.10;;;20.80;59.90;;;;;;5046952;28;20033;-45
2022/05/25 08:27:41;;;;;;;4.65;3.20;;;20.80;58.00;;;;;;5040243;28;20033;-44
2022/05/25 08:30:09;;;;;;;5.00;2.88;;;21.10;59.70;;;;;;5028501;28;20365;-44
2022/05/25 08:32:35;;;;;;;4.47;3.15;;;21.30;57.00;;;;;;5047619;28;20434;-44
2022/05/25 08:35:03;;;;;;;4.35;2.60;;;21.00;57.90;;;;;;5029666;28;20033;-44
2022/05/25 08:37:28;;;;;;;3.75;2.97;;;21.40;57.90;;;;;;5040143;28;20119;-43
2022/05/25 08:39:54;;;;;;;5.95;3.50;;;20.90;56.50;;;;;;5046850;28;20121;-45
2022/05/25 08:42:24;;;;;;;5.53;3.20;;;20.60;58.60;;;;;;5043762;28;20033;-45
2022/05/25 08:44:52;;;;;;;4.55;2.85;;;21.00;58.10;;;;;;5031022;28;20025;-44
2022/05/25 08:47:18;;;;;;;5.65;2.67;;;20.70;55.60;;;;;;5038484;28;20059;-46
2022/05/25 08:49:48;;;;;;;4.75;2.20;;;20.40;54.40;;;;;;5030428;28;20083;-44
2022/05/25 08:52:28;;;;;;;3.25;2.25;;;20.40;57.90;;;;;;5039672;28;20067;-44
2022/05/25 08:54:57;;;;;;;3.95;2.30;;;20.40;54.80;;;;;;5031308;28;20083;-45
2022/05/25 08:57:36;;;;;;;5.13;1.70;;;20.40;57.70;;;;;;5042800;28;20358;-47
2022/05/25 09:00:13;;;;;;;5.32;2.05;;;20.20;57.50;;;;;;5039906;28;20032;-44
2022/05/25 09:02:39;;;;;;;4.93;2.42;;;19.70;58.50;;;;;;5033596;28;20037;-44
2022/05/25 09:05:34;;;;;;;3.92;2.10;;;19.50;58.40;;;;;;5030074;28;20109;-49
2022/05/25 09:08:12;;;;;;;5.13;2.40;;;18.90;58.50;;;;;;5040937;28;20031;-43
2022/05/25 09:10:43;;;;;;;3.17;1.90;;;18.30;60.40;;;;;;5023907;28;20024;-45
2022/05/25 09:13:27;;;;;;;3.63;2.55;;;18.40;62.20;;;;;;5027584;28;20462;-45
2022/05/25 09:18:53;;;;;;;3.05;2.05;;;18.60;58.90;;;;;;5048518;28;20082;-45
2022/05/25 09:21:23;;;;;;;4.13;2.20;;;18.90;60.30;;;;;;5046118;28;20091;-44
2022/05/25 09:23:52;;;;;;;4.18;1.90;;;19.00;59.60;;;;;;5035866;28;20120;-46
2022/05/25 09:26:18;;;;;;;4.45;2.35;;;19.20;59.10;;;;;;5028440;28;20022;-45
2022/05/25 09:28:47;;;;;;;5.15;2.17;;;19.10;59.10;;;;;;5029930;28;20040;-44
2022/05/25 09:31:19;;;;;;;3.60;2.03;;;19.00;58.10;;;;;;5040660;28;20022;-45
2022/05/25 09:33:52;;;;;;;2.33;1.30;;;19.30;60.00;;;;;;5028674;28;20065;-44
2022/05/25 09:36:34;;;;;;;2.38;1.30;;;19.70;60.30;;;;;;5027353;28;20025;-45
2022/05/25 09:39:13;;;;;;;4.32;1.77;;;19.90;57.70;;;;;;5009461;28;20021;-45
2022/05/25 09:41:42;;;;;;;3.47;2.08;;;19.90;55.30;;;;;;5050506;28;20025;-44
2022/05/25 09:44:11;;;;;;;2.13;1.52;;;20.00;55.80;;;;;;5027939;28;20099;-48
2022/05/25 09:46:49;;;;;;;5.35;2.10;;;20.10;55.70;;;;;;5027148;28;20029;-45
2022/05/25 09:49:38;;;;;;;2.83;1.70;;;20.10;54.40;;;;;;5047140;28;20021;-47
2022/05/25 09:52:19;;;;;;;2.63;1.65;;;20.00;54.70;;;;;;5027213;28;20075;-47
2022/05/25 09:55:01;;;;;;;3.42;1.98;;;19.90;56.00;;;;;;5028952;28;20026;-44
2022/05/25 09:57:34;;;;;;;3.05;2.20;;;20.20;57.30;;;;;;5024558;28;20026;-47
2022/05/25 10:00:06;;;;;;;4.30;1.70;;;19.90;55.50;;;;;;5033031;28;20039;-49
2022/05/25 10:02:50;;;;;;;3.15;2.00;;;20.30;55.80;;;;;;5037037;28;20108;-46
2022/05/25 10:05:23;;;;;;;3.25;1.77;;;19.90;54.40;;;;;;5039660;28;20037;-45
2022/05/25 10:08:15;;;;;;;3.17;1.92;;;20.10;56.40;;;;;;5027574;28;20085;-45
2022/05/25 10:10:50;;;;;;;3.78;1.67;;;20.10;55.10;;;;;;5029213;28;20100;-47
2022/05/25 10:13:19;;;;;;;3.53;1.95;;;20.50;55.60;;;;;;5033569;28;20390;-48
2022/05/25 10:15:51;;;;;;;2.95;1.70;;;20.00;56.40;;;;;;5028376;28;20502;-44
2022/05/25 10:18:37;;;;;;;2.58;1.40;;;19.90;55.90;;;;;;5029310;28;20468;-52
2022/05/25 10:21:05;;;;;;;3.60;1.50;;;19.60;54.30;;;;;;5027284;28;20057;-45
2022/05/25 10:23:31;;;;;;;4.65;1.88;;;19.10;54.20;;;;;;5029362;28;20041;-46
2022/05/25 10:25:58;;;;;;;2.70;1.70;;;18.80;56.30;;;;;;5026828;28;20030;-47
2022/05/25 10:28:36;;;;;;;3.67;2.38;;;18.40;57.80;;;;;;5010888;28;20184;-45
2022/05/25 10:37:06;;;;;;;4.05;1.58;;;18.30;59.60;;;;;;5027504;28;20039;-46
2022/05/25 10:39:39;;;;;;;3.95;1.92;;;18.60;57.10;;;;;;5028562;28;20033;-44
2022/05/25 10:42:15;;;;;;;2.72;1.55;;;18.60;57.50;;;;;;5027115;28;20069;-48
2022/05/25 10:44:56;;;;;;;4.72;1.45;;;18.60;55.90;;;;;;5013229;28;20104;-44
2022/05/25 10:47:50;;;;;;;4.10;2.28;;;19.20;56.40;;;;;;5042510;28;20041;-47
2022/05/25 10:50:37;;;;;;;2.97;1.80;;;19.40;55.90;;;;;;5032621;28;20053;-49
2022/05/25 10:53:26;;;;;;;3.53;2.08;;;19.40;54.30;;;;;;5030108;28;20081;-46
2022/05/25 10:56:01;;;;;;;4.38;2.38;;;19.50;54.60;;;;;;5030365;28;20025;-45
2022/05/25 10:58:53;;;;;;;3.38;1.73;;;19.90;54.90;;;;;;5044403;28;20037;-47
2022/05/25 11:01:19;;;;;;;4.03;2.10;;;20.40;55.70;;;;;;5029473;28;20021;-45
2022/05/25 11:04:05;;;;;;;3.65;2.00;;;20.60;55.20;;;;;;5030715;28;20033;-46
2022/05/25 11:06:44;;;;;;;3.30;1.75;;;20.70;52.80;;;;;;5020776;28;20032;-46
2022/05/25 11:09:13;;;;;;;2.28;1.20;;;20.70;51.80;;;;;;5044662;28;20524;-45
2022/05/25 11:11:58;;;;;;;4.57;1.33;;;20.50;51.10;;;;;;5043297;28;20029;-48
2022/05/25 11:14:41;;;;;;;2.95;1.13;;;20.50;53.30;;;;;;5040547;28;20511;-48
2022/05/25 11:17:15;;;;;;;3.63;1.65;;;20.70;50.90;;;;;;5030642;28;20095;-44
2022/05/25 11:20:11;;;;;;;3.67;1.27;;;21.20;53.00;;;;;;5029361;28;20068;-47
2022/05/25 11:22:45;;;;;;;4.03;2.28;;;21.00;51.40;;;;;;5037697;28;20038;-47
2022/05/25 11:25:20;;;;;;;4.22;1.27;;;20.90;51.90;;;;;;5028916;28;20029;-46
2022/05/25 11:28:14;;;;;;;1.95;1.23;;;20.90;52.20;;;;;;5039722;28;20041;-45
2022/05/25 11:30:58;;;;;;;3.17;1.88;;;20.40;50.40;;;;;;5045972;28;20048;-46
2022/05/25 11:33:36;;;;;;;2.33;1.35;;;19.90;53.20;;;;;;5027992;28;20029;-45
2022/05/25 11:36:05;;;;;;;2.75;1.30;;;19.60;53.70;;;;;;5028946;28;20070;-45
2022/05/25 11:38:50;;;;;;;3.85;2.00;;;19.50;56.30;;;;;;5030778;28;20026;-47
2022/05/25 11:41:35;;;;;;;3.70;1.67;;;19.50;55.60;;;;;;5041157;28;20350;-48
2022/05/25 11:44:16;;;;;;;2.95;1.42;;;19.60;55.40;;;;;;5037447;28;20025;-46
2022/05/25 11:46:48;;;;;;;2.63;1.48;;;19.60;55.70;;;;;;5037034;28;20029;-47
2022/05/25 11:49:25;;;;;;;4.07;1.98;;;19.50;56.20;;;;;;5035065;28;20037;-45
2022/05/25 11:52:11;;;;;;;2.38;1.40;;;19.60;56.60;;;;;;5029584;28;20068;-45
2022/05/25 11:55:24;;;;;;;2.92;1.60;;;20.00;53.80;;;;;;5041664;28;20128;-48
2022/05/25 11:58:11;;;;;;;6.40;1.60;;;20.20;54.70;;;;;;5037339;28;20033;-47
2022/05/25 12:00:55;;;;;;;4.82;1.75;;;20.60;56.00;;;;;;5042987;28;20036;-45
2022/05/25 12:03:24;;;;;;;3.85;2.17;;;20.90;54.00;;;;;;5045843;28;20036;-44
2022/05/25 12:06:25;;;;;;;5.25;2.67;;;20.70;53.90;;;;;;5035227;28;20029;-46
2022/05/25 12:09:11;;;;;;;3.47;1.67;;;20.10;54.40;;;;;;5013902;28;20036;-47
2022/05/25 12:11:48;;;;;;;2.65;1.73;;;20.00;55.40;;;;;;5019062;28;20069;-48
2022/05/25 12:14:31;;;;;;;4.28;1.63;;;20.00;55.70;;;;;;5030706;28;20454;-47
2022/05/25 12:17:05;;;;;;;3.53;1.85;;;20.20;55.90;;;;;;5029797;28;20040;-45
2022/05/25 12:19:35;;;;;;;5.55;1.80;;;20.40;53.30;;;;;;5030472;28;20029;-45
2022/05/25 12:22:11;;;;;;;3.47;1.77;;;20.50;52.50;;;;;;5030590;28;20343;-44
2022/05/25 12:24:43;;;;;;;2.85;1.52;;;20.70;52.10;;;;;;5027385;28;20045;-43
2022/05/25 12:27:22;;;;;;;4.40;1.45;;;20.10;53.50;;;;;;5049503;28;20171;-47
2022/05/25 12:30:02;;;;;;;4.93;1.63;;;20.00;54.70;;;;;;5029213;28;20025;-46
2022/05/25 12:32:28;;;;;;;4.10;1.55;;;20.10;55.20;;;;;;5044521;28;20060;-47
2022/05/25 12:34:55;;;;;;;4.97;1.70;;;19.90;53.30;;;;;;5048440;28;20067;-44
2022/05/25 12:37:27;;;;;;;3.30;2.10;;;19.90;54.50;;;;;;5044902;28;20037;-45
2022/05/25 12:40:04;;;;;;;3.55;1.60;;;20.00;55.80;;;;;;5042282;28;20040;-44
2022/05/25 12:42:35;;;;;;;4.75;1.80;;;20.20;53.40;;;;;;5049085;28;20350;-45
2022/05/25 12:50:48;;;;;;;3.30;1.90;;;19.70;53.10;;;;;;5028618;28;20481;-45
2022/05/25 12:53:37;;;;;;;3.10;2.33;;;19.20;56.60;;;;;;5036985;28;20045;-45
2022/05/25 12:56:15;;;;;;;5.60;2.50;;;18.70;57.00;;;;;;5028074;28;20022;-46
2022/05/25 12:58:53;;;;;;;3.55;1.90;;;18.60;56.90;;;;;;5017431;28;20040;-44
2022/05/25 13:01:26;;;;;;;5.22;2.80;;;18.60;58.50;;;;;;5028764;28;20022;-43
2022/05/25 13:03:58;;;;;;;3.70;2.20;;;18.80;57.60;;;;;;5033546;28;20052;-43
2022/05/25 13:06:29;;;;;;;3.30;2.05;;;18.90;56.70;;;;;;5040155;28;20037;-45
2022/05/25 13:08:55;;;;;;;4.05;2.22;;;18.90;56.90;;;;;;5039859;28;20102;-44
2022/05/25 13:11:55;;;;;;;4.57;2.53;;;18.80;54.70;;;;;;5029581;28;20442;-47
2022/05/25 13:14:22;;;;;;;2.78;1.75;;;18.50;58.90;;;;;;5038821;28;20040;-45
2022/05/25 13:16:51;;;;;;;6.68;2.85;;;17.60;62.80;;;;;;5040820;28;20051;-44
2022/05/25 13:19:18;;;;;;;4.40;1.83;;;16.90;66.10;;;;;;5046477;28;20373;-44
2022/05/25 13:22:07;;;;;;;4.18;2.00;;;16.30;68.80;;;;;;5047731;28;20053;-43
2022/05/25 13:24:56;;;;;;;8.17;2.30;;;16.20;70.70;;;;;;5022983;28;20055;-43
2022/05/25 13:27:58;;;;;;;6.20;2.40;;;16.00;71.60;;;;;;5021589;28;20033;-44
2022/05/25 13:30:46;;;;;;;5.20;2.42;;;15.80;71.90;;;;;;5041065;28;20041;-44
2022/05/25 13:33:21;;;;;;;3.33;1.98;;;15.60;69.80;;;;;;5028612;28;20041;-43
2022/05/25 13:35:58;;;;;;;3.35;2.47;;;15.70;69.30;;;;;;5045414;28;20116;-46
2022/05/25 13:38:29;;;;;;;4.70;2.30;;;15.70;71.60;;;;;;5035796;28;20036;-52